sensor_id;sensor_type;location;lat;lon;timestamp;pressure;altitude;pressure_sealevel;temperature;humidity
62697;BME280;48761;42.680;23.312;2022-09-23T00:00:46;95058.19;;;24.95;47.92
62697;BME280;48761;42.680;23.312;2022-09-23T00:03:13;95056.53;;;24.94;48.01
62697;BME280;48761;42.680;23.312;2022-09-23T00:05:39;95060.28;;;24.93;47.63
62697;BME280;48761;42.680;23.312;2022-09-23T00:08:06;95053.97;;;24.93;47.96
62697;BME280;48761;42.680;23.312;2022-09-23T00:10:35;95055.03;;;24.92;47.75
62697;BME280;48761;42.680;23.312;2022-09-23T00:13:02;95047.72;;;24.92;47.71
62697;BME280;48761;42.680;23.312;2022-09-23T00:15:28;95046.88;;;24.92;47.98
62697;BME280;48761;42.680;23.312;2022-09-23T00:17:54;95046.03;;;24.91;47.58
62697;BME280;48761;42.680;23.312;2022-09-23T00:20:19;95046.03;;;24.91;47.85
62697;BME280;48761;42.680;23.312;2022-09-23T00:22:45;95037.25;;;24.89;47.67
62697;BME280;48761;42.680;23.312;2022-09-23T00:25:11;95042.03;;;24.87;47.86
62697;BME280;48761;42.680;23.312;2022-09-23T00:27:38;95042.69;;;24.89;47.56
62697;BME280;48761;42.680;23.312;2022-09-23T00:30:06;95043.69;;;24.88;47.70
62697;BME280;48761;42.680;23.312;2022-09-23T00:32:33;95046.41;;;24.88;47.86
62697;BME280;48761;42.680;23.312;2022-09-23T00:34:59;95042.69;;;24.89;47.80
62697;BME280;48761;42.680;23.312;2022-09-23T00:37:27;95042.03;;;24.87;47.55
62697;BME280;48761;42.680;23.312;2022-09-23T00:39:53;95043.91;;;24.87;47.54
62697;BME280;48761;42.680;23.312;2022-09-23T00:42:20;95043.91;;;24.87;47.46
62697;BME280;48761;42.680;23.312;2022-09-23T00:44:50;95042.22;;;24.85;47.58
62697;BME280;48761;42.680;23.312;2022-09-23T00:47:23;95039.69;;;24.84;47.88
62697;BME280;48761;42.680;23.312;2022-09-23T00:50:17;95044.28;;;24.83;47.80
62697;BME280;48761;42.680;23.312;2022-09-23T00:52:46;95039.69;;;24.84;47.51
62697;BME280;48761;42.680;23.312;2022-09-23T00:55:19;95045.13;;;24.84;47.68
62697;BME280;48761;42.680;23.312;2022-09-23T00:57:47;95039.69;;;24.84;47.51
62697;BME280;48761;42.680;23.312;2022-09-23T01:00:13;95037.19;;;24.82;47.47
62697;BME280;48761;42.680;23.312;2022-09-23T01:02:39;95042.63;;;24.82;47.53
62697;BME280;48761;42.680;23.312;2022-09-23T01:05:06;95043.44;;;24.83;47.44
62697;BME280;48761;42.680;23.312;2022-09-23T01:07:33;95042.78;;;24.81;47.71
62697;BME280;48761;42.680;23.312;2022-09-23T01:09:59;95043.44;;;24.83;47.62
62697;BME280;48761;42.680;23.312;2022-09-23T01:15:18;95044.50;;;24.82;47.63
62697;BME280;48761;42.680;23.312;2022-09-23T01:17:51;95041.13;;;24.80;47.41
62697;BME280;48761;42.680;23.312;2022-09-23T01:20:32;95043.00;;;24.79;47.31
62697;BME280;48761;42.680;23.312;2022-09-23T01:34:21;95049.00;;;24.74;47.51
62697;BME280;48761;42.680;23.312;2022-09-23T01:36:54;95049.00;;;24.74;47.45
62697;BME280;48761;42.680;23.312;2022-09-23T01:39:34;95049.00;;;24.74;47.43
62697;BME280;48761;42.680;23.312;2022-09-23T01:44:45;95051.72;;;24.74;47.43
62697;BME280;48761;42.680;23.312;2022-09-23T01:47:30;95055.84;;;24.70;47.22
62697;BME280;48761;42.680;23.312;2022-09-23T01:50:01;95052.09;;;24.71;47.27
62697;BME280;48761;42.680;23.312;2022-09-23T01:52:39;95053.78;;;24.72;47.42
62697;BME280;48761;42.680;23.312;2022-09-23T01:55:21;95055.84;;;24.70;47.25
62697;BME280;48761;42.680;23.312;2022-09-23T01:57:53;95052.09;;;24.71;47.00
62697;BME280;48761;42.680;23.312;2022-09-23T02:00:22;95046.03;;;24.69;47.03
62697;BME280;48761;42.680;23.312;2022-09-23T02:02:56;95043.31;;;24.69;47.22
62697;BME280;48761;42.680;23.312;2022-09-23T02:05:49;95055.03;;;24.70;47.01
62697;BME280;48761;42.680;23.312;2022-09-23T02:08:21;95048.75;;;24.69;47.45
62697;BME280;48761;42.680;23.312;2022-09-23T02:10:56;95052.47;;;24.68;47.00
62697;BME280;48761;42.680;23.312;2022-09-23T02:16:30;95053.72;;;24.66;47.01
62697;BME280;48761;42.680;23.312;2022-09-23T02:19:14;95053.72;;;24.66;46.94
62697;BME280;48761;42.680;23.312;2022-09-23T02:21:45;95049.13;;;24.66;47.04
62697;BME280;48761;42.680;23.312;2022-09-23T02:24:24;95049.13;;;24.66;47.21
62697;BME280;48761;42.680;23.312;2022-09-23T02:26:58;95054.56;;;24.66;46.96
62697;BME280;48761;42.680;23.312;2022-09-23T02:29:41;95045.75;;;24.64;46.88
62697;BME280;48761;42.680;23.312;2022-09-23T02:35:07;95047.41;;;24.65;46.91
62697;BME280;48761;42.680;23.312;2022-09-23T02:37:56;95051.19;;;24.64;46.87
62697;BME280;48761;42.680;23.312;2022-09-23T02:45:40;95047.81;;;24.62;46.81
62697;BME280;48761;42.680;23.312;2022-09-23T02:48:17;95054.94;;;24.63;46.75
62697;BME280;48761;42.680;23.312;2022-09-23T02:50:43;95057.00;;;24.61;47.11
62697;BME280;48761;42.680;23.312;2022-09-23T02:53:09;95057.00;;;24.61;47.01
62697;BME280;48761;42.680;23.312;2022-09-23T02:55:35;95061.41;;;24.62;46.85
62697;BME280;48761;42.680;23.312;2022-09-23T02:58:03;95059.72;;;24.61;46.78
62697;BME280;48761;42.680;23.312;2022-09-23T03:00:42;95059.72;;;24.61;46.64
62697;BME280;48761;42.680;23.312;2022-09-23T03:03:46;95063.28;;;24.61;46.97
62697;BME280;48761;42.680;23.312;2022-09-23T03:06:26;95061.59;;;24.60;46.96
62697;BME280;48761;42.680;23.312;2022-09-23T03:09:01;95061.16;;;24.57;46.82
62697;BME280;48761;42.680;23.312;2022-09-23T03:11:27;95067.22;;;24.59;46.72
62697;BME280;48761;42.680;23.312;2022-09-23T03:14:02;95068.25;;;24.58;46.88
62697;BME280;48761;42.680;23.312;2022-09-23T03:17:06;95067.41;;;24.57;46.94
62697;BME280;48761;42.680;23.312;2022-09-23T03:19:48;95054.38;;;24.52;47.02
62697;BME280;48761;42.680;23.312;2022-09-23T03:22:26;95062.81;;;24.58;46.65
62697;BME280;48761;42.680;23.312;2022-09-23T03:24:55;95062.81;;;24.58;46.76
62697;BME280;48761;42.680;23.312;2022-09-23T03:27:27;95050.66;;;24.54;46.86
62697;BME280;48761;42.680;23.312;2022-09-23T03:29:59;95054.38;;;24.52;46.57
62697;BME280;48761;42.680;23.312;2022-09-23T03:32:26;95055.44;;;24.51;46.88
62697;BME280;48761;42.680;23.312;2022-09-23T03:34:56;95063.22;;;24.55;46.77
62697;BME280;48761;42.680;23.312;2022-09-23T03:37:32;95054.00;;;24.56;46.85
62697;BME280;48761;42.680;23.312;2022-09-23T03:40:02;95062.16;;;24.56;46.57
62697;BME280;48761;42.680;23.312;2022-09-23T03:42:32;95057.78;;;24.55;46.55
62697;BME280;48761;42.680;23.312;2022-09-23T03:44:58;95056.94;;;24.54;46.53
62697;BME280;48761;42.680;23.312;2022-09-23T03:47:26;95054.38;;;24.52;46.86
62697;BME280;48761;42.680;23.312;2022-09-23T03:49:53;95056.47;;;24.50;46.56
62697;BME280;48761;42.680;23.312;2022-09-23T03:52:21;95064.22;;;24.54;46.93
62697;BME280;48761;42.680;23.312;2022-09-23T03:54:48;95062.75;;;24.51;46.64
62697;BME280;48761;42.680;23.312;2022-09-23T03:57:14;95064.44;;;24.52;46.86
62697;BME280;48761;42.680;23.312;2022-09-23T03:59:40;95056.84;;;24.47;46.56
62697;BME280;48761;42.680;23.312;2022-09-23T04:02:06;95066.69;;;24.48;46.75
62697;BME280;48761;42.680;23.312;2022-09-23T04:04:36;95067.31;;;24.50;46.53
62697;BME280;48761;42.680;23.312;2022-09-23T04:07:04;95074.44;;;24.51;46.51
62697;BME280;48761;42.680;23.312;2022-09-23T04:09:34;95072.75;;;24.50;46.66
62697;BME280;48761;42.680;23.312;2022-09-23T04:12:00;95074.44;;;24.51;46.41
62697;BME280;48761;42.680;23.312;2022-09-23T04:14:27;95073.41;;;24.52;46.58
62697;BME280;48761;42.680;23.312;2022-09-23T04:16:52;95073.41;;;24.52;46.47
62697;BME280;48761;42.680;23.312;2022-09-23T04:19:18;95079.88;;;24.51;46.36
62697;BME280;48761;42.680;23.312;2022-09-23T04:21:47;95087.84;;;24.53;46.40
62697;BME280;48761;42.680;23.312;2022-09-23T04:24:15;95097.03;;;24.52;46.30
62697;BME280;48761;42.680;23.312;2022-09-23T04:26:41;95085.31;;;24.51;46.49
62697;BME280;48761;42.680;23.312;2022-09-23T04:29:08;95091.59;;;24.52;46.12
62697;BME280;48761;42.680;23.312;2022-09-23T04:31:34;95084.28;;;24.52;46.24
62697;BME280;48761;42.680;23.312;2022-09-23T04:34:00;95089.91;;;24.51;46.20
62697;BME280;48761;42.680;23.312;2022-09-23T04:36:27;95091.59;;;24.52;46.43
62697;BME280;48761;42.680;23.312;2022-09-23T04:38:53;95101.63;;;24.51;46.25
62697;BME280;48761;42.680;23.312;2022-09-23T04:41:19;95101.63;;;24.51;46.46
62697;BME280;48761;42.680;23.312;2022-09-23T04:43:45;95099.19;;;24.57;46.41
62697;BME280;48761;42.680;23.312;2022-09-23T04:46:12;95104.22;;;24.60;46.51
62697;BME280;48761;42.680;23.312;2022-09-23T04:48:39;95109.66;;;24.60;46.41
62697;BME280;48761;42.680;23.312;2022-09-23T04:51:17;95117.34;;;24.56;46.99
62697;BME280;48761;42.680;23.312;2022-09-23T04:53:45;95116.69;;;24.54;47.31
62697;BME280;48761;42.680;23.312;2022-09-23T04:56:17;95119.59;;;24.52;46.85
62697;BME280;48761;42.680;23.312;2022-09-23T04:58:43;95117.28;;;24.49;46.99
62697;BME280;48761;42.680;23.312;2022-09-23T05:01:14;95116.50;;;24.40;45.63
62697;BME280;48761;42.680;23.312;2022-09-23T05:03:41;95123.53;;;24.35;46.46
62697;BME280;48761;42.680;23.312;2022-09-23T05:06:08;95113.50;;;24.35;46.90
62697;BME280;48761;42.680;23.312;2022-09-23T05:08:34;95121.88;;;24.34;46.99
62697;BME280;48761;42.680;23.312;2022-09-23T05:11:02;95118.50;;;24.32;46.85
62697;BME280;48761;42.680;23.312;2022-09-23T05:13:29;95130.38;;;24.31;46.93
62697;BME280;48761;42.680;23.312;2022-09-23T05:16:01;95131.03;;;24.33;47.09
62697;BME280;48761;42.680;23.312;2022-09-23T05:18:32;95122.22;;;24.31;46.91
62697;BME280;48761;42.680;23.312;2022-09-23T05:20:58;95129.53;;;24.30;47.08
62697;BME280;48761;42.680;23.312;2022-09-23T05:23:24;95128.31;;;24.33;47.05
62697;BME280;48761;42.680;23.312;2022-09-23T05:26:01;95132.72;;;24.34;47.08
62697;BME280;48761;42.680;23.312;2022-09-23T05:28:28;95141.53;;;24.36;46.82
62697;BME280;48761;42.680;23.312;2022-09-23T05:31:04;95129.81;;;24.35;47.09
62697;BME280;48761;42.680;23.312;2022-09-23T05:33:31;95133.38;;;24.36;47.01
62697;BME280;48761;42.680;23.312;2022-09-23T05:35:57;95133.38;;;24.36;47.19
62697;BME280;48761;42.680;23.312;2022-09-23T05:38:23;95143.22;;;24.37;47.07
62697;BME280;48761;42.680;23.312;2022-09-23T05:40:57;95141.53;;;24.36;46.93
62697;BME280;48761;42.680;23.312;2022-09-23T05:43:23;95146.97;;;24.36;47.01
62697;BME280;48761;42.680;23.312;2022-09-23T05:45:50;95139.66;;;24.36;47.05
62697;BME280;48761;42.680;23.312;2022-09-23T05:48:16;95130.00;;;24.34;46.96
62697;BME280;48761;42.680;23.312;2022-09-23T05:50:49;95141.53;;;24.36;46.85
62697;BME280;48761;42.680;23.312;2022-09-23T05:53:15;95134.03;;;24.38;46.91
62697;BME280;48761;42.680;23.312;2022-09-23T05:55:41;95143.22;;;24.37;46.78
62697;BME280;48761;42.680;23.312;2022-09-23T05:58:07;95134.22;;;24.36;46.94
62697;BME280;48761;42.680;23.312;2022-09-23T06:00:33;95129.66;;;24.37;46.89
62697;BME280;48761;42.680;23.312;2022-09-23T06:02:59;95133.19;;;24.37;46.98
62697;BME280;48761;42.680;23.312;2022-09-23T06:05:25;95142.19;;;24.38;46.63
62697;BME280;48761;42.680;23.312;2022-09-23T06:07:51;95131.97;;;24.40;46.90
62697;BME280;48761;42.680;23.312;2022-09-23T06:10:17;95133.66;;;24.41;46.81
62697;BME280;48761;42.680;23.312;2022-09-23T06:12:43;95136.19;;;24.43;47.05
62697;BME280;48761;42.680;23.312;2022-09-23T06:15:09;95131.22;;;24.46;47.13
62697;BME280;48761;42.680;23.312;2022-09-23T06:17:35;95136.28;;;24.49;46.93
62697;BME280;48761;42.680;23.312;2022-09-23T06:20:01;95126.34;;;24.57;46.88
62697;BME280;48761;42.680;23.312;2022-09-23T06:22:27;95139.81;;;24.65;46.62
62697;BME280;48761;42.680;23.312;2022-09-23T06:24:53;95140.72;;;24.72;46.71
62697;BME280;48761;42.680;23.312;2022-09-23T06:27:19;95135.19;;;24.81;46.49
62697;BME280;48761;42.680;23.312;2022-09-23T06:29:45;95124.78;;;24.84;46.37
62697;BME280;48761;42.680;23.312;2022-09-23T06:32:11;95130.50;;;24.90;46.08
62697;BME280;48761;42.680;23.312;2022-09-23T06:34:37;95128.06;;;24.95;45.79
62697;BME280;48761;42.680;23.312;2022-09-23T06:37:03;95125.78;;;24.99;45.88
62697;BME280;48761;42.680;23.312;2022-09-23T06:39:29;95132.16;;;25.06;45.69
62697;BME280;48761;42.680;23.312;2022-09-23T06:41:55;95138.72;;;25.12;45.94
62697;BME280;48761;42.680;23.312;2022-09-23T06:44:21;95131.84;;;25.16;45.69
62697;BME280;48761;42.680;23.312;2022-09-23T06:46:47;95136.69;;;25.21;45.43
62697;BME280;48761;42.680;23.312;2022-09-23T06:49:13;95134.25;;;25.26;45.34
62697;BME280;48761;42.680;23.312;2022-09-23T06:51:39;95141.84;;;25.30;45.45
62697;BME280;48761;42.680;23.312;2022-09-23T06:54:05;95134.75;;;25.36;45.56
62697;BME280;48761;42.680;23.312;2022-09-23T06:56:31;95141.53;;;25.40;45.34
62697;BME280;48761;42.680;23.312;2022-09-23T06:59:03;95144.88;;;25.43;45.40
62697;BME280;48761;42.680;23.312;2022-09-23T07:01:29;95144.50;;;25.46;45.03
62697;BME280;48761;42.680;23.312;2022-09-23T07:03:55;95150.59;;;25.48;45.41
62697;BME280;48761;42.680;23.312;2022-09-23T07:06:21;95155.22;;;25.54;45.14
62697;BME280;48761;42.680;23.312;2022-09-23T07:08:47;95155.22;;;25.54;44.92
62697;BME280;48761;42.680;23.312;2022-09-23T07:11:14;95152.13;;;25.57;45.13
62697;BME280;48761;42.680;23.312;2022-09-23T07:13:41;95153.41;;;25.61;44.82
62697;BME280;48761;42.680;23.312;2022-09-23T07:16:08;95156.38;;;25.67;45.11
62697;BME280;48761;42.680;23.312;2022-09-23T07:18:35;95146.16;;;25.69;45.10
62697;BME280;48761;42.680;23.312;2022-09-23T07:21:17;95159.00;;;25.75;44.86
62697;BME280;48761;42.680;23.312;2022-09-23T07:23:45;95158.63;;;25.78;44.88
62697;BME280;48761;42.680;23.312;2022-09-23T07:26:12;95154.84;;;25.79;44.54
62697;BME280;48761;42.680;23.312;2022-09-23T07:28:39;95154.84;;;25.79;44.60
62697;BME280;48761;42.680;23.312;2022-09-23T07:31:07;95161.19;;;25.86;44.75
62697;BME280;48761;42.680;23.312;2022-09-23T07:33:35;95165.59;;;25.88;44.52
62697;BME280;48761;42.680;23.312;2022-09-23T07:36:08;95167.94;;;25.91;44.39
62697;BME280;48761;42.680;23.312;2022-09-23T07:38:35;95176.75;;;25.93;44.55
62697;BME280;48761;42.680;23.312;2022-09-23T07:41:05;95174.66;;;25.95;44.60
62697;BME280;48761;42.680;23.312;2022-09-23T07:43:31;95172.41;;;25.99;44.47
62697;BME280;48761;42.680;23.312;2022-09-23T07:46:02;95171.16;;;26.01;44.27
62697;BME280;48761;42.680;23.312;2022-09-23T07:48:29;95171.81;;;26.03;44.56
62697;BME280;48761;42.680;23.312;2022-09-23T07:50:56;95178.91;;;26.04;44.39
62697;BME280;48761;42.680;23.312;2022-09-23T07:53:22;95174.31;;;26.05;44.31
62697;BME280;48761;42.680;23.312;2022-09-23T07:55:55;95173.47;;;26.04;44.51
62697;BME280;48761;42.680;23.312;2022-09-23T07:58:22;95173.69;;;26.03;44.53
62697;BME280;48761;42.680;23.312;2022-09-23T08:00:48;95163.44;;;26.05;44.80
62697;BME280;48761;42.680;23.312;2022-09-23T08:03:14;95179.41;;;26.15;44.64
62697;BME280;48761;42.680;23.312;2022-09-23T08:05:40;95178.41;;;26.16;44.63
62697;BME280;48761;42.680;23.312;2022-09-23T08:08:06;95176.69;;;26.15;44.45
62697;BME280;48761;42.680;23.312;2022-09-23T08:10:33;95173.97;;;26.15;44.76
62697;BME280;48761;42.680;23.312;2022-09-23T08:12:59;95180.91;;;26.17;44.72
62697;BME280;48761;42.680;23.312;2022-09-23T08:15:25;95175.28;;;26.19;44.50
62697;BME280;48761;42.680;23.312;2022-09-23T08:17:50;95173.59;;;26.18;44.66
62697;BME280;48761;42.680;23.312;2022-09-23T08:20:16;95171.88;;;26.17;45.01
62697;BME280;48761;42.680;23.312;2022-09-23T08:22:42;95166.44;;;26.17;44.73
62697;BME280;48761;42.680;23.312;2022-09-23T08:25:08;95166.66;;;26.15;44.82
62697;BME280;48761;42.680;23.312;2022-09-23T08:27:35;95172.75;;;26.17;44.81
62697;BME280;48761;42.680;23.312;2022-09-23T08:30:01;95168.53;;;26.15;44.97
62697;BME280;48761;42.680;23.312;2022-09-23T08:32:27;95167.69;;;26.14;44.65
62697;BME280;48761;42.680;23.312;2022-09-23T08:34:53;95169.38;;;26.15;45.02
62697;BME280;48761;42.680;23.312;2022-09-23T08:37:19;95163.06;;;26.15;44.98
62697;BME280;48761;42.680;23.312;2022-09-23T08:39:45;95169.38;;;26.15;44.99
62697;BME280;48761;42.680;23.312;2022-09-23T08:42:22;95161.00;;;26.17;44.90
62697;BME280;48761;42.680;23.312;2022-09-23T08:44:54;95151.78;;;26.18;45.02
62697;BME280;48761;42.680;23.312;2022-09-23T08:47:45;95163.72;;;26.17;44.92
62697;BME280;48761;42.680;23.312;2022-09-23T08:55:48;95160.59;;;26.20;44.99
62697;BME280;48761;42.680;23.312;2022-09-23T09:01:01;95159.75;;;26.19;44.89
62697;BME280;48761;42.680;23.312;2022-09-23T09:03:55;95152.44;;;26.20;44.65
62697;BME280;48761;42.680;23.312;2022-09-23T09:09:03;95147.19;;;26.18;44.92
62697;BME280;48761;42.680;23.312;2022-09-23T09:11:39;95151.78;;;26.18;44.76
62697;BME280;48761;42.680;23.312;2022-09-23T09:20:05;95156.22;;;26.19;45.02
62697;BME280;48761;42.680;23.312;2022-09-23T09:22:57;95158.94;;;26.19;45.04
62697;BME280;48761;42.680;23.312;2022-09-23T09:25:45;95152.81;;;26.17;44.83
62697;BME280;48761;42.680;23.312;2022-09-23T09:30:43;95161.41;;;26.14;44.74
62697;BME280;48761;42.680;23.312;2022-09-23T09:33:16;95154.28;;;26.13;45.02
62697;BME280;48761;42.680;23.312;2022-09-23T09:38:35;95163.47;;;26.12;44.83
62697;BME280;48761;42.680;23.312;2022-09-23T09:41:18;95155.31;;;26.12;45.13
62697;BME280;48761;42.680;23.312;2022-09-23T09:43:45;95155.97;;;26.14;45.04
62697;BME280;48761;42.680;23.312;2022-09-23T09:49:10;95154.66;;;26.10;44.79
62697;BME280;48761;42.680;23.312;2022-09-23T09:51:38;95160.50;;;26.06;45.11
62697;BME280;48761;42.680;23.312;2022-09-23T09:54:21;95156.13;;;26.05;44.70
62697;BME280;48761;42.680;23.312;2022-09-23T09:56:47;95154.41;;;26.04;44.78
62697;BME280;48761;42.680;23.312;2022-09-23T09:59:24;95143.53;;;26.04;44.91
62697;BME280;48761;42.680;23.312;2022-09-23T10:02:11;95142.25;;;26.00;44.83
62697;BME280;48761;42.680;23.312;2022-09-23T10:04:37;95146.66;;;26.01;45.17
62697;BME280;48761;42.680;23.312;2022-09-23T10:07:13;95141.22;;;26.01;45.27
62697;BME280;48761;42.680;23.312;2022-09-23T10:09:46;95143.94;;;26.01;45.13
62697;BME280;48761;42.680;23.312;2022-09-23T10:12:14;95135.31;;;25.97;44.69
62697;BME280;48761;42.680;23.312;2022-09-23T10:14:41;95135.31;;;25.97;45.18
62697;BME280;48761;42.680;23.312;2022-09-23T10:17:14;95137.81;;;25.99;44.99
62697;BME280;48761;42.680;23.312;2022-09-23T10:19:48;95134.06;;;26.00;45.58
62697;BME280;48761;42.680;23.312;2022-09-23T10:22:20;95132.00;;;26.02;45.29
62697;BME280;48761;42.680;23.312;2022-09-23T10:24:47;95134.06;;;26.00;45.58
62697;BME280;48761;42.680;23.312;2022-09-23T10:27:14;95132.84;;;26.03;45.47
62697;BME280;48761;42.680;23.312;2022-09-23T10:29:48;95124.66;;;26.03;45.29
62697;BME280;48761;42.680;23.312;2022-09-23T10:32:34;95126.53;;;26.02;45.44
62697;BME280;48761;42.680;23.312;2022-09-23T10:37:36;95119.19;;;25.96;45.25
62697;BME280;48761;42.680;23.312;2022-09-23T10:40:29;95125.66;;;25.95;45.38
62697;BME280;48761;42.680;23.312;2022-09-23T10:43:16;95116.66;;;25.94;45.62
62697;BME280;48761;42.680;23.312;2022-09-23T10:45:47;95119.19;;;25.96;45.23
62697;BME280;48761;42.680;23.312;2022-09-23T10:49:07;95120.22;;;25.95;45.49
62697;BME280;48761;42.680;23.312;2022-09-23T11:05:58;95107.81;;;25.85;45.52
62697;BME280;48761;42.680;23.312;2022-09-23T11:30:14;95088.25;;;25.75;45.67
62697;BME280;48761;42.680;23.312;2022-09-23T11:35:48;95074.00;;;25.73;45.54
62697;BME280;48761;42.680;23.312;2022-09-23T11:38:19;95072.28;;;25.72;45.70
62697;BME280;48761;42.680;23.312;2022-09-23T11:40:47;95074.84;;;25.73;45.72
62697;BME280;48761;42.680;23.312;2022-09-23T11:43:18;95063.13;;;25.73;45.61
62697;BME280;48761;42.680;23.312;2022-09-23T11:46:37;95059.72;;;25.71;45.66
62697;BME280;48761;42.680;23.312;2022-09-23T11:48:41;95060.97;;;25.68;45.80
62697;BME280;48761;42.680;23.312;2022-09-23T11:54:33;95055.91;;;25.65;45.81
62697;BME280;48761;42.680;23.312;2022-09-23T11:57:05;95060.50;;;25.64;45.64
62697;BME280;48761;42.680;23.312;2022-09-23T11:59:50;95053.38;;;25.63;45.65
62697;BME280;48761;42.680;23.312;2022-09-23T12:05:19;95054.44;;;25.62;45.59
62697;BME280;48761;42.680;23.312;2022-09-23T12:07:58;95051.69;;;25.62;45.70
62697;BME280;48761;42.680;23.312;2022-09-23T12:10:52;95055.44;;;25.61;45.73
62697;BME280;48761;42.680;23.312;2022-09-23T12:19:06;95065.91;;;25.58;45.62
62697;BME280;48761;42.680;23.312;2022-09-23T12:24:26;95061.31;;;25.58;45.90
62697;BME280;48761;42.680;23.312;2022-09-23T12:27:00;95058.78;;;25.57;45.70
62697;BME280;48761;42.680;23.312;2022-09-23T12:29:29;95049.97;;;25.55;45.94
62697;BME280;48761;42.680;23.312;2022-09-23T12:31:59;95047.88;;;25.57;45.87
62697;BME280;48761;42.680;23.312;2022-09-23T12:34:52;95044.53;;;25.55;46.06
62697;BME280;48761;42.680;23.312;2022-09-23T12:37:25;95037.38;;;25.53;45.99
62697;BME280;48761;42.680;23.312;2022-09-23T12:39:53;95046.78;;;25.51;45.96
62697;BME280;48761;42.680;23.312;2022-09-23T12:42:23;95043.25;;;25.50;46.18
62697;BME280;48761;42.680;23.312;2022-09-23T12:44:49;95048.47;;;25.52;46.10
62697;BME280;48761;42.680;23.312;2022-09-23T12:49:42;95049.50;;;25.51;46.16
62697;BME280;48761;42.680;23.312;2022-09-23T12:52:12;95044.06;;;25.51;46.08
62697;BME280;48761;42.680;23.312;2022-09-23T12:54:40;95049.50;;;25.51;45.83
62697;BME280;48761;42.680;23.312;2022-09-23T12:57:11;95044.06;;;25.51;46.15
62697;BME280;48761;42.680;23.312;2022-09-23T12:59:57;95045.13;;;25.50;45.85
62697;BME280;48761;42.680;23.312;2022-09-23T13:02:35;95051.59;;;25.49;46.28
62697;BME280;48761;42.680;23.312;2022-09-23T13:07:47;95052.00;;;25.46;46.20
62697;BME280;48761;42.680;23.312;2022-09-23T13:10:20;95044.03;;;25.44;45.83
62697;BME280;48761;42.680;23.312;2022-09-23T13:12:53;95057.66;;;25.51;46.15
62697;BME280;48761;42.680;23.312;2022-09-23T13:15:36;95049.13;;;25.54;45.91
62697;BME280;48761;42.680;23.312;2022-09-23T13:20:44;95050.19;;;25.53;45.73
62697;BME280;48761;42.680;23.312;2022-09-23T13:25:38;95051.19;;;25.52;45.75
62697;BME280;48761;42.680;23.312;2022-09-23T13:28:20;95054.94;;;25.51;46.05
62697;BME280;48761;42.680;23.312;2022-09-23T13:30:48;95047.84;;;25.50;45.92
62697;BME280;48761;42.680;23.312;2022-09-23T13:33:29;95051.59;;;25.49;45.83
62697;BME280;48761;42.680;23.312;2022-09-23T13:36:01;95041.94;;;25.46;46.24
62697;BME280;48761;42.680;23.312;2022-09-23T13:38:28;95044.88;;;25.45;46.01
62697;BME280;48761;42.680;23.312;2022-09-23T13:43:40;95048.63;;;25.44;45.72
62697;BME280;48761;42.680;23.312;2022-09-23T13:46:15;95043.19;;;25.44;45.93
62697;BME280;48761;42.680;23.312;2022-09-23T13:48:46;95031.28;;;25.45;45.79
62697;BME280;48761;42.680;23.312;2022-09-23T13:51:26;95036.06;;;25.43;45.75
62697;BME280;48761;42.680;23.312;2022-09-23T13:53:54;95033.53;;;25.41;45.97
62697;BME280;48761;42.680;23.312;2022-09-23T13:56:22;95028.94;;;25.41;45.79
62697;BME280;48761;42.680;23.312;2022-09-23T13:58:48;95030.16;;;25.39;46.13
62697;BME280;48761;42.680;23.312;2022-09-23T14:01:24;95025.56;;;25.39;45.83
62697;BME280;48761;42.680;23.312;2022-09-23T14:03:53;95024.94;;;25.37;46.18
62697;BME280;48761;42.680;23.312;2022-09-23T14:06:19;95021.38;;;25.37;45.96
62697;BME280;48761;42.680;23.312;2022-09-23T14:08:49;95028.50;;;25.38;46.22
62697;BME280;48761;42.680;23.312;2022-09-23T14:11:28;95028.03;;;25.34;46.04
62697;BME280;48761;42.680;23.312;2022-09-23T14:13:54;95023.44;;;25.35;45.90
62697;BME280;48761;42.680;23.312;2022-09-23T14:16:22;95021.56;;;25.35;45.91
62697;BME280;48761;42.680;23.312;2022-09-23T14:18:50;95024.31;;;25.35;46.02
62697;BME280;48761;42.680;23.312;2022-09-23T14:21:31;95014.66;;;25.33;45.89
62697;BME280;48761;42.680;23.312;2022-09-23T14:26:36;95012.75;;;25.33;45.88
62697;BME280;48761;42.680;23.312;2022-09-23T14:29:14;95013.81;;;25.32;45.73
62697;BME280;48761;42.680;23.312;2022-09-23T14:31:44;95020.91;;;25.33;45.99
62697;BME280;48761;42.680;23.312;2022-09-23T14:37:43;95024.69;;;25.32;46.02
62697;BME280;48761;42.680;23.312;2022-09-23T14:40:14;95026.34;;;25.33;45.86
62697;BME280;48761;42.680;23.312;2022-09-23T14:42:43;95019.25;;;25.32;45.70
62697;BME280;48761;42.680;23.312;2022-09-23T14:45:16;95020.91;;;25.33;45.85
62697;BME280;48761;42.680;23.312;2022-09-23T14:47:46;95020.09;;;25.33;45.84
62697;BME280;48761;42.680;23.312;2022-09-23T14:50:15;95018.19;;;25.33;45.81
62697;BME280;48761;42.680;23.312;2022-09-23T14:52:49;95007.56;;;25.38;46.22
62697;BME280;48761;42.680;23.312;2022-09-23T14:55:16;95013.47;;;25.42;45.48
62697;BME280;48761;42.680;23.312;2022-09-23T14:57:43;95011.34;;;25.37;45.77
62697;BME280;48761;42.680;23.312;2022-09-23T15:00:16;95000.47;;;25.37;45.45
62697;BME280;48761;42.680;23.312;2022-09-23T15:03:17;95007.56;;;25.38;45.53
62697;BME280;48761;42.680;23.312;2022-09-23T15:05:46;95005.06;;;25.37;45.77
62697;BME280;48761;42.680;23.312;2022-09-23T15:08:18;95000.00;;;25.34;45.68
62697;BME280;48761;42.680;23.312;2022-09-23T15:10:44;95012.53;;;25.28;45.83
62697;BME280;48761;42.680;23.312;2022-09-23T15:13:28;95014.19;;;25.29;46.10
62697;BME280;48761;42.680;23.312;2022-09-23T15:15:55;95019.00;;;25.27;45.87
62697;BME280;48761;42.680;23.312;2022-09-23T15:18:24;95019.19;;;25.25;46.06